Time;durP1;ratioP1;P1;durP2;ratioP2;P2;SDS_P1;SDS_P2;PMS_P1;PMS_P2;Temp;Humidity;BMP_temperature;BMP_pressure;BME280_temperature;BME280_humidity;BME280_pressure;Samples;Min_cycle;Max_cycle;Signal;HPM_P1;HPM_P2
2022/05/13 00:02:21;;;;;;;4.40;2.00;;;;;;100564.67;;;;107135;1274;64773;-24
2022/05/13 00:04:48;;;;;;;4.70;1.80;;;;;;100567.08;;;;107159;1274;64927;-26
2022/05/13 00:07:16;;;;;;;5.70;2.30;;;;;;100561.26;;;;107157;1274;64954;-35
2022/05/13 00:10:05;;;;;;;4.60;1.70;;;;;;100564.45;;;;107192;1274;64799;-32
2022/05/13 00:12:40;;;;;;;3.90;1.70;;;;;;100563.77;;;;107191;1274;64863;-28
2022/05/13 00:15:16;;;;;;;5.00;1.80;;;;;;100564.08;;;;107218;1274;64879;-27
2022/05/13 00:17:45;;;;;;;3.50;1.60;;;;;;100563.81;;;;107238;1274;67099;-25
2022/05/13 00:20:12;;;;;;;4.40;1.60;;;;;;100560.56;;;;107030;1275;65426;-22
2022/05/13 00:22:46;;;;;;;4.00;1.70;;;;;;100559.67;;;;107120;1274;64840;-32
2022/05/13 00:25:17;;;;;;;4.30;1.70;;;;;;100556.92;;;;107156;1274;64728;-32
2022/05/13 00:27:45;;;;;;;4.40;1.50;;;;;;100558.16;;;;107222;1274;64773;-33
2022/05/13 00:30:13;;;;;;;3.20;1.40;;;;;;100558.40;;;;107223;1274;65275;-31
2022/05/13 00:32:41;;;;;;;3.60;1.70;;;;;;100558.08;;;;107219;1274;64885;-24
2022/05/13 00:35:09;;;;;;;4.00;1.30;;;;;;100559.39;;;;107139;1275;64593;-23
2022/05/13 00:37:37;;;;;;;4.50;1.60;;;;;;100561.50;;;;107212;1274;64741;-30
2022/05/13 00:40:05;;;;;;;4.50;1.80;;;;;;100565.15;;;;107229;1274;64869;-33
2022/05/13 00:42:32;;;;;;;3.40;1.50;;;;;;100564.10;;;;107230;1274;67053;-24
2022/05/13 00:45:00;;;;;;;3.50;1.70;;;;;;100559.44;;;;107209;1274;64831;-23
2022/05/13 00:47:28;;;;;;;4.00;1.90;;;;;;100559.98;;;;107116;1274;63715;-24
2022/05/13 00:49:56;;;;;;;4.20;1.70;;;;;;100558.41;;;;107201;1273;64929;-23
2022/05/13 00:52:24;;;;;;;4.60;1.60;;;;;;100554.86;;;;107284;1274;64814;-23
2022/05/13 00:54:53;;;;;;;5.70;2.10;;;;;;100556.11;;;;107240;1274;66116;-24
2022/05/13 00:57:21;;;;;;;3.70;1.80;;;;;;100559.63;;;;107121;1274;64844;-37
2022/05/13 00:59:50;;;;;;;3.80;1.50;;;;;;100560.36;;;;107218;1274;64901;-34
2022/05/13 01:02:18;;;;;;;4.60;1.70;;;;;;100562.23;;;;107134;1274;62458;-33
2022/05/13 01:04:45;;;;;;;3.90;1.70;;;;;;100565.61;;;;107246;1274;64862;-33
2022/05/13 01:07:18;;;;;;;3.30;1.60;;;;;;100566.76;;;;107234;1274;66918;-31
2022/05/13 01:09:50;;;;;;;4.30;1.80;;;;;;100572.66;;;;107248;1274;64767;-32
2022/05/13 01:12:23;;;;;;;3.90;1.80;;;;;;100573.90;;;;107259;1274;64860;-32
2022/05/13 01:14:55;;;;;;;4.30;1.90;;;;;;100575.13;;;;107247;1274;64773;-33
2022/05/13 01:20:21;;;;;;;;;;;;;;100576.75;;;;107270;1274;66081;-24
2022/05/13 01:22:53;;;;;;;3.90;1.90;;;;;;100571.63;;;;107229;1274;64755;-25
2022/05/13 01:25:24;;;;;;;4.60;1.80;;;;;;100571.95;;;;107227;1274;64771;-26
2022/05/13 01:27:55;;;;;;;3.60;1.70;;;;;;100575.22;;;;107237;1274;65404;-32
2022/05/13 01:30:29;;;;;;;4.10;1.90;;;;;;100574.54;;;;107273;1274;65562;-32
2022/05/13 01:32:56;;;;;;;4.40;1.80;;;;;;100571.08;;;;107272;1274;66395;-32
2022/05/13 01:35:24;;;;;;;4.70;1.90;;;;;;100569.30;;;;107264;1274;64789;-31
2022/05/13 01:37:51;;;;;;;4.50;1.70;;;;;;100574.08;;;;107255;1274;64846;-28
2022/05/13 01:40:18;;;;;;;4.10;2.20;;;;;;100575.03;;;;107113;1274;64961;-23
2022/05/13 01:42:45;;;;;;;3.70;2.10;;;;;;100577.98;;;;107212;1274;64837;-34
2022/05/13 01:45:13;;;;;;;4.00;1.70;;;;;;100576.15;;;;107169;1273;68141;-33
2022/05/13 01:47:40;;;;;;;4.60;1.90;;;;;;100574.08;;;;107213;1274;64811;-23
2022/05/13 01:50:09;;;;;;;3.90;1.90;;;;;;100577.63;;;;107166;1275;64795;-25
2022/05/13 01:52:36;;;;;;;4.10;2.00;;;;;;100579.77;;;;107235;1274;64821;-24
2022/05/13 01:55:04;;;;;;;4.60;1.90;;;;;;100575.65;;;;107239;1274;64907;-24
2022/05/13 01:57:32;;;;;;;3.70;1.60;;;;;;100572.73;;;;107322;1274;66455;-26
2022/05/13 01:59:59;;;;;;;4.30;2.00;;;;;;100571.73;;;;107242;1274;64825;-24
2022/05/13 02:02:26;;;;;;;3.90;1.80;;;;;;100571.39;;;;107252;1274;64934;-26
2022/05/13 02:04:53;;;;;;;4.00;1.80;;;;;;100565.69;;;;107246;1274;64894;-24
2022/05/13 02:07:20;;;;;;;4.30;2.00;;;;;;100562.42;;;;107224;1274;65075;-32
2022/05/13 02:09:47;;;;;;;3.90;2.10;;;;;;100560.31;;;;107248;1274;64872;-33
2022/05/13 02:12:14;;;;;;;5.20;2.10;;;;;;100559.66;;;;107240;1274;64760;-23
2022/05/13 02:14:42;;;;;;;4.30;2.10;;;;;;100565.31;;;;107223;1274;64852;-24
2022/05/13 02:17:09;;;;;;;3.90;1.80;;;;;;100565.70;;;;107190;1274;64872;-24
2022/05/13 02:19:37;;;;;;;4.80;2.20;;;;;;100576.27;;;;107262;1274;64803;-24
2022/05/13 02:22:04;;;;;;;4.50;2.20;;;;;;100574.51;;;;107264;1274;64888;-24
2022/05/13 02:24:31;;;;;;;4.40;2.10;;;;;;100573.62;;;;107148;1274;64856;-24
2022/05/13 02:26:59;;;;;;;4.70;2.50;;;;;;100567.22;;;;107245;1274;64760;-33
2022/05/13 02:29:26;;;;;;;4.80;2.20;;;;;;100567.16;;;;107232;1274;64696;-32
2022/05/13 02:31:53;;;;;;;5.50;2.20;;;;;;100563.70;;;;107241;1274;64873;-25
2022/05/13 02:34:20;;;;;;;4.60;2.10;;;;;;100559.46;;;;107244;1274;66402;-24
2022/05/13 02:36:47;;;;;;;5.70;2.20;;;;;;100557.38;;;;107237;1274;64764;-32
2022/05/13 02:39:15;;;;;;;4.20;2.10;;;;;;100550.28;;;;107219;1274;65309;-33
2022/05/13 02:41:44;;;;;;;5.40;2.30;;;;;;100548.11;;;;107198;1274;64885;-24
2022/05/13 02:44:11;;;;;;;5.40;2.20;;;;;;100547.73;;;;107258;1274;64741;-24
2022/05/13 02:46:39;;;;;;;5.20;2.00;;;;;;100545.48;;;;107221;1274;65740;-33
2022/05/13 02:49:06;;;;;;;3.80;1.80;;;;;;100544.87;;;;107186;1274;64758;-32
2022/05/13 02:51:33;;;;;;;4.80;2.20;;;;;;100549.64;;;;107236;1274;64882;-32
2022/05/13 02:54:00;;;;;;;4.10;2.10;;;;;;100550.10;;;;107243;1274;64763;-33
2022/05/13 02:56:27;;;;;;;4.80;2.00;;;;;;100551.71;;;;107165;1274;64815;-25
2022/05/13 02:58:55;;;;;;;4.00;2.00;;;;;;100549.22;;;;107248;1274;64911;-24
2022/05/13 03:01:22;;;;;;;4.30;2.00;;;;;;100542.86;;;;107228;1274;64735;-28
2022/05/13 03:03:50;;;;;;;4.50;2.00;;;;;;100544.30;;;;107233;1274;64786;-32
2022/05/13 03:06:19;;;;;;;4.40;2.00;;;;;;100547.03;;;;107229;1274;64748;-33
2022/05/13 03:08:48;;;;;;;4.90;2.60;;;;;;100548.23;;;;107242;1274;64738;-24
2022/05/13 03:11:16;;;;;;;4.50;2.10;;;;;;100546.31;;;;107084;1274;66114;-25
2022/05/13 03:13:44;;;;;;;4.50;2.50;;;;;;100554.56;;;;107258;1274;64788;-32
2022/05/13 03:16:18;;;;;;;4.60;2.50;;;;;;100554.42;;;;107278;1274;64846;-33
2022/05/13 03:18:52;;;;;;;5.80;2.20;;;;;;100553.52;;;;107264;1274;64735;-33
2022/05/13 03:21:22;;;;;;;4.10;2.10;;;;;;100549.91;;;;107258;1274;64860;-33
2022/05/13 03:23:50;;;;;;;4.80;2.10;;;;;;100545.09;;;;107277;1274;66028;-23
2022/05/13 03:26:21;;;;;;;4.10;2.20;;;;;;100548.27;;;;107170;1274;64891;-23
2022/05/13 03:28:48;;;;;;;5.00;2.30;;;;;;100547.13;;;;107159;1274;64811;-23
2022/05/13 03:31:18;;;;;;;5.90;2.20;;;;;;100544.65;;;;107145;1274;64966;-24
2022/05/13 03:33:45;;;;;;;4.10;2.30;;;;;;100540.14;;;;107233;1274;64789;-23
2022/05/13 03:36:14;;;;;;;5.20;2.60;;;;;;100539.13;;;;107169;1274;66233;-22
2022/05/13 03:38:42;;;;;;;5.40;2.30;;;;;;100539.71;;;;107258;1274;64739;-32
2022/05/13 03:41:11;;;;;;;4.00;2.30;;;;;;100542.23;;;;107136;1274;64879;-33
2022/05/13 03:43:38;;;;;;;4.60;2.40;;;;;;100543.54;;;;107239;1274;65399;-25
2022/05/13 03:46:05;;;;;;;4.50;2.10;;;;;;100545.23;;;;107251;1274;64970;-27
2022/05/13 03:48:33;;;;;;;5.10;2.50;;;;;;100547.23;;;;107220;1274;67050;-33
2022/05/13 03:51:01;;;;;;;6.00;2.40;;;;;;100548.88;;;;107214;1274;64850;-32
2022/05/13 03:53:28;;;;;;;4.30;2.50;;;;;;100552.56;;;;107245;1274;64761;-31
2022/05/13 03:55:55;;;;;;;4.40;2.30;;;;;;100555.10;;;;107220;1274;64865;-33
2022/05/13 03:58:23;;;;;;;5.00;2.30;;;;;;100552.84;;;;107245;1274;66000;-25
2022/05/13 04:00:51;;;;;;;4.60;2.20;;;;;;100551.31;;;;107151;1274;66288;-24
2022/05/13 04:03:19;;;;;;;4.50;2.30;;;;;;100550.06;;;;107113;1274;64937;-33
2022/05/13 04:11:20;;;;;;;4.60;2.50;;;;;;100548.14;;;;107156;1274;64824;-33
2022/05/13 04:16:35;;;;;;;4.70;2.30;;;;;;100539.17;;;;106976;1274;321874;-24
2022/05/13 04:19:06;;;;;;;5.10;2.60;;;;;;100539.63;;;;107234;1274;65029;-25
2022/05/13 04:21:37;;;;;;;4.70;2.30;;;;;;100544.52;;;;107203;1274;64741;-33
2022/05/13 04:24:09;;;;;;;4.40;2.20;;;;;;100546.45;;;;107154;1274;64799;-33
2022/05/13 04:26:37;;;;;;;4.50;2.20;;;;;;100549.61;;;;107151;1274;66241;-23
2022/05/13 04:29:06;;;;;;;4.70;2.40;;;;;;100548.14;;;;107256;1274;65088;-24
2022/05/13 04:31:38;;;;;;;4.80;2.80;;;;;;100547.30;;;;107208;1274;64760;-32
2022/05/13 04:34:08;;;;;;;4.40;2.00;;;;;;100546.48;;;;107232;1274;64910;-33
2022/05/13 04:36:36;;;;;;;5.00;2.50;;;;;;100545.48;;;;107153;1274;64916;-25
2022/05/13 04:39:04;;;;;;;4.60;2.10;;;;;;100544.27;;;;107250;1274;66225;-24
2022/05/13 04:44:18;;;;;;;4.30;2.20;;;;;;100538.80;;;;107214;1274;64743;-32
2022/05/13 04:46:45;;;;;;;4.50;2.30;;;;;;100539.10;;;;107178;1274;64760;-33
2022/05/13 04:49:13;;;;;;;4.60;2.50;;;;;;100535.54;;;;107244;1274;64782;-33
2022/05/13 04:51:41;;;;;;;4.70;2.60;;;;;;100536.29;;;;107235;1274;66277;-33
2022/05/13 04:54:08;;;;;;;5.20;2.50;;;;;;100538.35;;;;107189;1274;64917;-24
2022/05/13 04:56:36;;;;;;;5.40;2.60;;;;;;100537.66;;;;107235;1274;64811;-32
2022/05/13 04:59:04;;;;;;;4.40;2.30;;;;;;100538.54;;;;107235;1273;64764;-33
2022/05/13 05:01:31;;;;;;;5.00;2.40;;;;;;100539.11;;;;107267;1273;64760;-31
2022/05/13 05:03:59;;;;;;;5.70;2.20;;;;;;100540.20;;;;107208;1274;65211;-33
2022/05/13 05:06:26;;;;;;;5.20;2.50;;;;;;100538.02;;;;107145;1274;64843;-24
2022/05/13 05:08:56;;;;;;;5.10;2.60;;;;;;100541.64;;;;107146;1274;64817;-23
2022/05/13 05:11:23;;;;;;;4.10;2.30;;;;;;100538.59;;;;107231;1274;64827;-33
2022/05/13 05:13:52;;;;;;;4.60;2.30;;;;;;100538.39;;;;107211;1274;64898;-35
2022/05/13 05:16:22;;;;;;;5.80;2.70;;;;;;100541.73;;;;107235;1274;65976;-33
2022/05/13 05:18:50;;;;;;;5.80;2.10;;;;;;100539.88;;;;107235;1274;64740;-24
2022/05/13 05:21:18;;;;;;;4.30;2.20;;;;;;100536.13;;;;107256;1274;64753;-31
2022/05/13 05:23:46;;;;;;;4.60;2.30;;;;;;100534.60;;;;107226;1274;64846;-34
2022/05/13 05:26:13;;;;;;;4.30;2.30;;;;;;100531.67;;;;107263;1274;64759;-60
2022/05/13 05:28:41;;;;;;;4.10;2.20;;;;;;100531.21;;;;107233;1274;65891;-23
2022/05/13 05:31:11;;;;;;;4.90;2.40;;;;;;100528.88;;;;107257;1274;64875;-24
2022/05/13 05:33:39;;;;;;;4.30;2.10;;;;;;100528.06;;;;107296;1274;64778;-24
2022/05/13 05:36:07;;;;;;;4.70;2.30;;;;;;100526.58;;;;107260;1274;64843;-23
2022/05/13 05:38:35;;;;;;;4.30;2.20;;;;;;100527.45;;;;107194;1274;64762;-34
2022/05/13 05:41:02;;;;;;;4.90;2.30;;;;;;100530.35;;;;107294;1274;66478;-39
2022/05/13 05:43:30;;;;;;;4.30;2.30;;;;;;100531.47;;;;107222;1274;64723;-35
2022/05/13 05:45:59;;;;;;;5.40;2.80;;;;;;100529.19;;;;107245;1274;64837;-34
2022/05/13 05:48:27;;;;;;;4.70;2.20;;;;;;100528.91;;;;107256;1274;64771;-23
2022/05/13 05:50:56;;;;;;;4.40;2.40;;;;;;100529.23;;;;107253;1274;64829;-22
2022/05/13 05:58:58;;;;;;;4.80;2.30;;;;;;100533.40;;;;107172;1274;64889;-40
2022/05/13 06:01:27;;;;;;;4.40;2.20;;;;;;100535.60;;;;107226;1274;64860;-26
2022/05/13 06:03:54;;;;;;;4.60;2.30;;;;;;100535.57;;;;107278;1274;64887;-24
2022/05/13 06:06:23;;;;;;;4.00;2.20;;;;;;100538.58;;;;107242;1274;64738;-30
2022/05/13 06:08:55;;;;;;;4.40;2.10;;;;;;100538.83;;;;107253;1274;64759;-23
2022/05/13 06:11:23;;;;;;;4.20;2.20;;;;;;100541.02;;;;107249;1274;64726;-27
2022/05/13 06:13:58;;;;;;;4.00;2.00;;;;;;100538.39;;;;107230;1274;64724;-34
2022/05/13 06:16:28;;;;;;;5.40;2.50;;;;;;100534.64;;;;107272;1274;64885;-24
2022/05/13 06:19:00;;;;;;;4.60;2.30;;;;;;100534.39;;;;107264;1274;64911;-23
2022/05/13 06:21:33;;;;;;;3.80;2.00;;;;;;100535.34;;;;107227;1274;64708;-32
2022/05/13 06:24:02;;;;;;;4.00;2.00;;;;;;100534.02;;;;107228;1274;64734;-41
2022/05/13 06:26:30;;;;;;;4.90;2.20;;;;;;100532.50;;;;107275;1274;64763;-31
2022/05/13 06:28:58;;;;;;;4.50;2.00;;;;;;100534.80;;;;107194;1273;64777;-33
2022/05/13 06:31:26;;;;;;;4.50;2.50;;;;;;100534.35;;;;107282;1274;64922;-24
2022/05/13 06:33:54;;;;;;;3.90;2.20;;;;;;100533.98;;;;107242;1274;64965;-23
2022/05/13 06:36:21;;;;;;;4.00;2.00;;;;;;100533.52;;;;107242;1274;64736;-24
2022/05/13 06:38:50;;;;;;;3.90;2.00;;;;;;100531.91;;;;107251;1273;64770;-34
2022/05/13 06:41:17;;;;;;;3.90;1.90;;;;;;100530.59;;;;107228;1274;64747;-32
2022/05/13 06:43:45;;;;;;;4.40;2.20;;;;;;100527.04;;;;107301;1274;66195;-34
2022/05/13 06:46:12;;;;;;;3.70;1.70;;;;;;100525.32;;;;107145;1274;64726;-34
2022/05/13 06:48:39;;;;;;;4.90;2.50;;;;;;100525.80;;;;107247;1274;64748;-32
2022/05/13 06:51:07;;;;;;;3.20;1.70;;;;;;100522.83;;;;107193;1274;64750;-32
2022/05/13 06:53:34;;;;;;;3.70;1.70;;;;;;100520.81;;;;107260;1274;64961;-33
2022/05/13 06:56:01;;;;;;;5.20;2.00;;;;;;100522.52;;;;107235;1273;66427;-32
2022/05/13 06:58:28;;;;;;;4.20;2.00;;;;;;100520.29;;;;107217;1274;64856;-33
2022/05/13 07:00:56;;;;;;;3.80;1.80;;;;;;100519.73;;;;107224;1274;64744;-35
2022/05/13 07:03:23;;;;;;;4.00;2.00;;;;;;100517.84;;;;107237;1274;64873;-31
2022/05/13 07:05:50;;;;;;;3.90;1.70;;;;;;100515.77;;;;107267;1274;64731;-31
2022/05/13 07:08:17;;;;;;;3.00;1.50;;;;;;100512.20;;;;107232;1274;66488;-37
2022/05/13 07:10:45;;;;;;;3.90;1.40;;;;;;100515.73;;;;107207;1274;64883;-39
2022/05/13 07:13:15;;;;;;;3.20;1.60;;;;;;100512.21;;;;107221;1273;64838;-32
2022/05/13 07:15:43;;;;;;;3.30;1.50;;;;;;100510.95;;;;107234;1274;64716;-33
2022/05/13 07:18:11;;;;;;;3.70;1.40;;;;;;100509.13;;;;107247;1274;64893;-23
2022/05/13 07:20:39;;;;;;;3.40;1.40;;;;;;100503.65;;;;107247;1274;64979;-23
2022/05/13 07:23:06;;;;;;;3.70;1.50;;;;;;100504.23;;;;107208;1274;65397;-33
2022/05/13 07:25:34;;;;;;;3.80;1.50;;;;;;100501.48;;;;107250;1274;64807;-31
2022/05/13 07:28:01;;;;;;;3.00;1.20;;;;;;100501.15;;;;107231;1274;64878;-31
2022/05/13 07:30:28;;;;;;;2.80;1.20;;;;;;100500.06;;;;107263;1274;64970;-33
2022/05/13 07:32:55;;;;;;;2.50;1.30;;;;;;100498.21;;;;107256;1274;65196;-31
2022/05/13 07:35:23;;;;;;;2.40;1.10;;;;;;100491.09;;;;107222;1274;64751;-31
2022/05/13 07:37:51;;;;;;;2.60;1.20;;;;;;100496.61;;;;107230;1274;64842;-34
2022/05/13 07:43:04;;;;;;;2.90;1.30;;;;;;100498.54;;;;107241;1274;64923;-34
2022/05/13 07:45:32;;;;;;;2.80;1.20;;;;;;100493.96;;;;107135;1273;66146;-34
2022/05/13 07:48:01;;;;;;;2.60;1.20;;;;;;100490.63;;;;107232;1274;64869;-34
2022/05/13 07:50:30;;;;;;;2.90;1.20;;;;;;100490.70;;;;107229;1274;64740;-35
2022/05/13 07:52:58;;;;;;;2.90;1.00;;;;;;100490.77;;;;107210;1274;65081;-34
2022/05/13 07:55:25;;;;;;;2.90;0.90;;;;;;100494.27;;;;107213;1274;64783;-34
2022/05/13 07:57:53;;;;;;;3.30;1.10;;;;;;100487.52;;;;107243;1274;64907;-24
2022/05/13 08:00:27;;;;;;;2.90;1.10;;;;;;100490.27;;;;107227;1274;64983;-24
2022/05/13 08:03:15;;;;;;;3.00;1.10;;;;;;100489.59;;;;107227;1274;64847;-25
2022/05/13 08:05:50;;;;;;;2.30;1.00;;;;;;100487.25;;;;107227;1274;65078;-23
2022/05/13 08:08:26;;;;;;;2.70;1.30;;;;;;100494.48;;;;107193;1274;64745;-33
2022/05/13 08:10:57;;;;;;;3.30;1.10;;;;;;100489.17;;;;107210;1274;67698;-32
2022/05/13 08:13:25;;;;;;;3.10;1.10;;;;;;100490.66;;;;107255;1274;64945;-33
2022/05/13 08:15:52;;;;;;;2.50;1.00;;;;;;100489.23;;;;107246;1274;65987;-34
2022/05/13 08:18:21;;;;;;;1.80;0.80;;;;;;100486.95;;;;107217;1274;64715;-23
2022/05/13 08:20:49;;;;;;;2.30;1.00;;;;;;100485.64;;;;107245;1274;64841;-23
2022/05/13 08:23:18;;;;;;;3.00;0.90;;;;;;100485.92;;;;107209;1274;65878;-24
2022/05/13 08:25:46;;;;;;;2.70;1.10;;;;;;100486.86;;;;107216;1274;64737;-24
2022/05/13 08:28:14;;;;;;;1.90;0.90;;;;;;100485.45;;;;107216;1274;64735;-24
2022/05/13 08:30:42;;;;;;;2.20;0.90;;;;;;100482.06;;;;107180;1274;64847;-24
2022/05/13 08:33:10;;;;;;;3.70;1.30;;;;;;100483.20;;;;107252;1274;64732;-33
2022/05/13 08:35:46;;;;;;;3.00;1.00;;;;;;100475.63;;;;107230;1274;66364;-34
2022/05/13 08:38:17;;;;;;;3.30;0.90;;;;;;100476.06;;;;107220;1274;64756;-23
2022/05/13 08:40:52;;;;;;;2.00;0.80;;;;;;100476.55;;;;107232;1274;64757;-23
2022/05/13 08:43:35;;;;;;;2.20;0.90;;;;;;100475.49;;;;107244;1274;64746;-33
2022/05/13 08:46:40;;;;;;;2.20;0.90;;;;;;100472.35;;;;107235;1274;64725;-34
2022/05/13 08:49:44;;;;;;;1.80;1.00;;;;;;100462.39;;;;107004;1274;65604;-24
2022/05/13 08:55:26;;;;;;;2.30;0.90;;;;;;100455.37;;;;107234;1274;64840;-34
2022/05/13 08:57:57;;;;;;;2.80;0.80;;;;;;100454.73;;;;107044;1274;64933;-33
2022/05/13 09:00:39;;;;;;;2.10;0.80;;;;;;100450.63;;;;107087;1274;64887;-35
2022/05/13 09:03:30;;;;;;;2.80;0.80;;;;;;100453.12;;;;107249;1274;67436;-23
2022/05/13 09:06:48;;;;;;;2.60;1.10;;;;;;100454.20;;;;107220;1274;64757;-23
2022/05/13 09:09:15;;;;;;;2.10;0.80;;;;;;100462.61;;;;107133;1273;64819;-30
2022/05/13 09:12:23;;;;;;;2.50;0.80;;;;;;100463.95;;;;107232;1274;64880;-23
2022/05/13 09:15:25;;;;;;;2.10;0.80;;;;;;100458.60;;;;107148;1274;64772;-24
2022/05/13 09:18:16;;;;;;;2.00;1.00;;;;;;100445.77;;;;107244;1274;66098;-33
2022/05/13 09:20:50;;;;;;;3.40;0.90;;;;;;100440.07;;;;107204;1274;64761;-31
2022/05/13 09:23:19;;;;;;;2.70;1.00;;;;;;100434.54;;;;107245;1274;64804;-25
2022/05/13 09:26:19;;;;;;;2.10;0.90;;;;;;100434.80;;;;107248;1274;64990;-23
2022/05/13 09:29:14;;;;;;;3.30;1.00;;;;;;100434.66;;;;107255;1274;64882;-31
2022/05/13 09:32:14;;;;;;;5.30;1.30;;;;;;100431.51;;;;107231;1274;65983;-31
2022/05/13 09:35:28;;;;;;;4.00;1.00;;;;;;100428.15;;;;107246;1274;64731;-35
2022/05/13 09:37:55;;;;;;;2.90;0.80;;;;;;100419.23;;;;107237;1274;65004;-32
2022/05/13 09:40:26;;;;;;;4.10;1.00;;;;;;100415.64;;;;107120;1274;64950;-35
2022/05/13 09:42:57;;;;;;;2.40;1.10;;;;;;100405.08;;;;107194;1274;64893;-36
2022/05/13 09:45:28;;;;;;;4.60;1.20;;;;;;100401.39;;;;107252;1274;66077;-40
2022/05/13 09:48:19;;;;;;;2.20;0.90;;;;;;100401.80;;;;107219;1274;64955;-32
2022/05/13 09:50:55;;;;;;;3.00;1.00;;;;;;100395.79;;;;107105;1273;64851;-33
2022/05/13 09:53:23;;;;;;;1.70;0.70;;;;;;100385.16;;;;107219;1274;65180;-32
2022/05/13 09:55:54;;;;;;;2.80;0.90;;;;;;100380.05;;;;107240;1274;65911;-30
2022/05/13 09:58:32;;;;;;;2.80;0.90;;;;;;100378.38;;;;107266;1274;65298;-25
2022/05/13 10:01:13;;;;;;;3.00;1.00;;;;;;100366.02;;;;107245;1274;64859;-24
2022/05/13 10:03:41;;;;;;;2.20;0.70;;;;;;100362.30;;;;107271;1274;65311;-30
2022/05/13 10:06:11;;;;;;;1.70;0.70;;;;;;100359.56;;;;107216;1274;64939;-32
2022/05/13 10:08:54;;;;;;;2.70;0.90;;;;;;100360.13;;;;107271;1274;64874;-33
2022/05/13 10:14:32;;;;;;;2.80;1.00;;;;;;100361.70;;;;107217;1274;64778;-25
2022/05/13 10:17:09;;;;;;;2.60;1.00;;;;;;100357.52;;;;107213;1274;64760;-25
2022/05/13 10:20:08;;;;;;;2.20;0.90;;;;;;100354.06;;;;107144;1274;64872;-23
2022/05/13 10:22:53;;;;;;;2.70;1.00;;;;;;100347.94;;;;107245;1274;64907;-32
2022/05/13 10:25:26;;;;;;;2.90;0.80;;;;;;100355.45;;;;107247;1274;67560;-30
2022/05/13 10:28:13;;;;;;;2.50;1.00;;;;;;100350.25;;;;107160;1274;64892;-25
2022/05/13 10:31:25;;;;;;;3.60;1.00;;;;;;100348.34;;;;107240;1274;66061;-23
2022/05/13 10:33:58;;;;;;;4.20;1.20;;;;;;100348.94;;;;107209;1274;64866;-32
2022/05/13 10:36:48;;;;;;;4.10;0.90;;;;;;100343.88;;;;107277;1274;64859;-24
2022/05/13 10:39:46;;;;;;;2.30;0.80;;;;;;100338.25;;;;107238;1274;66182;-24
2022/05/13 10:42:22;;;;;;;3.40;1.10;;;;;;100334.75;;;;107225;1274;64853;-32
2022/05/13 10:45:21;;;;;;;4.00;1.10;;;;;;100335.69;;;;107166;1274;64840;-33
2022/05/13 10:48:02;;;;;;;4.00;1.00;;;;;;100338.01;;;;107151;1274;64853;-32
2022/05/13 10:50:34;;;;;;;2.60;0.90;;;;;;100331.57;;;;107248;1274;64901;-31
2022/05/13 10:53:23;;;;;;;6.50;1.30;;;;;;100322.42;;;;107246;1274;67783;-32
2022/05/13 10:56:04;;;;;;;2.60;1.30;;;;;;100320.63;;;;107221;1274;64715;-33
2022/05/13 10:58:39;;;;;;;2.10;0.90;;;;;;100318.95;;;;107185;1274;64888;-28
2022/05/13 11:01:40;;;;;;;1.80;0.80;;;;;;100313.85;;;;107223;1274;64754;-31
2022/05/13 11:04:40;;;;;;;3.70;1.30;;;;;;100309.42;;;;107229;1274;64861;-31
2022/05/13 11:07:25;;;;;;;3.10;1.30;;;;;;100306.60;;;;107221;1274;65881;-26
2022/05/13 11:10:21;;;;;;;3.30;1.00;;;;;;100315.80;;;;107241;1274;64870;-25
2022/05/13 11:12:59;;;;;;;4.00;1.50;;;;;;100313.34;;;;107154;1274;65101;-34
2022/05/13 11:16:08;;;;;;;2.90;1.10;;;;;;100308.24;;;;107207;1274;64838;-35
2022/05/13 11:19:29;;;;;;;4.00;1.50;;;;;;100304.01;;;;107259;1273;64881;-31
2022/05/13 11:22:18;;;;;;;7.60;2.20;;;;;;100302.18;;;;107137;1274;67433;-31
2022/05/13 11:28:20;;;;;;;4.00;1.40;;;;;;100298.39;;;;107213;1274;64827;-24
2022/05/13 11:30:53;;;;;;;4.70;1.40;;;;;;100295.52;;;;107204;1274;64748;-24
2022/05/13 11:33:42;;;;;;;;;;;;;;100294.83;;;;107264;1274;64725;-25
2022/05/13 11:36:12;;;;;;;3.10;1.30;;;;;;100294.89;;;;107112;1274;67687;-24
2022/05/13 11:39:00;;;;;;;3.00;1.40;;;;;;100293.60;;;;107227;1274;64978;-23
2022/05/13 11:41:51;;;;;;;3.40;1.40;;;;;;100291.52;;;;107216;1274;64770;-24
2022/05/13 11:44:22;;;;;;;5.00;1.60;;;;;;100286.62;;;;107264;1274;64920;-32
2022/05/13 11:47:02;;;;;;;2.60;1.20;;;;;;100288.05;;;;107244;1274;64747;-25
2022/05/13 11:49:37;;;;;;;4.20;1.40;;;;;;100292.30;;;;107240;1274;68661;-25
2022/05/13 11:52:12;;;;;;;2.80;1.10;;;;;;100286.07;;;;107225;1274;65056;-35
2022/05/13 11:54:42;;;;;;;3.60;1.40;;;;;;100282.59;;;;107216;1274;64744;-42
2022/05/13 11:57:28;;;;;;;2.20;1.20;;;;;;100278.21;;;;107246;1274;64728;-24
2022/05/13 12:00:20;;;;;;;3.50;1.50;;;;;;100272.70;;;;107237;1274;64737;-25
2022/05/13 12:02:56;;;;;;;4.10;1.50;;;;;;100272.27;;;;107219;1274;65717;-35
2022/05/13 12:05:28;;;;;;;3.70;1.30;;;;;;100273.08;;;;107155;1275;64966;-36
2022/05/13 12:08:04;;;;;;;3.30;1.20;;;;;;100273.64;;;;107217;1274;64864;-36
2022/05/13 12:11:02;;;;;;;4.30;1.40;;;;;;100270.08;;;;107231;1274;64703;-34
2022/05/13 12:13:57;;;;;;;3.60;1.60;;;;;;100270.96;;;;107276;1274;64754;-23
2022/05/13 12:16:52;;;;;;;4.00;1.30;;;;;;100258.55;;;;106628;1274;799484;-24
2022/05/13 12:19:34;;;;;;;2.70;1.30;;;;;;100259.14;;;;107217;1274;64873;-25
2022/05/13 12:22:12;;;;;;;3.10;1.40;;;;;;100253.23;;;;107217;1274;64852;-42
2022/05/13 12:25:07;;;;;;;3.00;1.50;;;;;;100249.68;;;;107189;1274;64753;-35
2022/05/13 12:27:44;;;;;;;3.40;1.50;;;;;;100250.15;;;;107250;1274;64715;-33
2022/05/13 12:30:30;;;;;;;4.20;1.60;;;;;;100246.48;;;;107233;1274;67115;-30
2022/05/13 12:33:19;;;;;;;4.40;1.40;;;;;;100243.73;;;;107142;1274;64955;-24
2022/05/13 12:39:21;;;;;;;3.70;1.30;;;;;;100241.99;;;;107213;1274;64786;-25
2022/05/13 12:42:11;;;;;;;4.80;1.60;;;;;;100234.84;;;;107247;1274;64744;-42
2022/05/13 12:44:59;;;;;;;3.00;1.10;;;;;;100234.15;;;;107163;1274;66508;-31
2022/05/13 12:47:58;;;;;;;3.70;1.70;;;;;;100231.79;;;;107164;1274;64836;-31
2022/05/13 12:50:37;;;;;;;5.30;1.70;;;;;;100231.10;;;;107207;1274;64927;-30
2022/05/13 12:53:47;;;;;;;3.60;1.50;;;;;;100229.60;;;;107177;1274;64952;-29
2022/05/13 12:56:32;;;;;;;3.30;1.50;;;;;;100227.33;;;;107121;1274;62225;-26
2022/05/13 12:59:37;;;;;;;3.40;1.50;;;;;;100217.06;;;;107153;1274;66136;-24
2022/05/13 13:02:06;;;;;;;3.70;1.30;;;;;;100216.17;;;;107147;1274;65187;-23
2022/05/13 13:04:42;;;;;;;4.20;1.30;;;;;;100218.29;;;;107113;1277;64753;-24
2022/05/13 13:07:20;;;;;;;3.30;1.40;;;;;;100218.45;;;;107208;1274;64711;-24
2022/05/13 13:09:52;;;;;;;3.90;1.70;;;;;;100213.71;;;;107235;1274;64847;-23
2022/05/13 13:12:34;;;;;;;4.60;1.60;;;;;;100213.20;;;;107243;1274;66285;-29
2022/05/13 13:15:15;;;;;;;3.40;1.60;;;;;;100209.32;;;;107252;1274;64845;-32
2022/05/13 13:17:56;;;;;;;2.90;1.30;;;;;;100214.52;;;;107220;1274;64756;-33
2022/05/13 13:20:27;;;;;;;4.50;1.60;;;;;;100213.89;;;;107140;1274;64876;-31
2022/05/13 13:23:06;;;;;;;3.30;1.50;;;;;;100212.63;;;;107210;1274;64909;-32
2022/05/13 13:25:40;;;;;;;2.90;1.40;;;;;;100208.61;;;;107270;1274;66148;-33
2022/05/13 13:28:19;;;;;;;2.90;1.30;;;;;;100202.27;;;;107215;1274;64806;-32
2022/05/13 13:30:55;;;;;;;2.70;1.30;;;;;;100197.93;;;;107229;1274;64844;-33
2022/05/13 13:33:27;;;;;;;5.10;1.50;;;;;;100193.51;;;;107232;1274;65321;-23
2022/05/13 13:36:24;;;;;;;3.30;1.40;;;;;;100194.36;;;;107249;1274;64863;-23
2022/05/13 13:38:57;;;;;;;3.70;1.50;;;;;;100191.59;;;;107187;1274;66244;-31
2022/05/13 13:41:36;;;;;;;3.70;1.50;;;;;;100191.36;;;;107049;1276;64958;-24
2022/05/13 13:44:07;;;;;;;5.70;2.20;;;;;;100192.02;;;;107241;1273;63607;-25
2022/05/13 13:46:45;;;;;;;3.40;1.40;;;;;;100194.39;;;;107239;1274;64718;-24
2022/05/13 13:49:30;;;;;;;3.20;1.40;;;;;;100189.27;;;;107081;1274;64839;-23
2022/05/13 13:52:13;;;;;;;4.00;1.70;;;;;;100183.95;;;;107164;1274;66437;-23
2022/05/13 13:54:54;;;;;;;3.00;1.60;;;;;;100181.07;;;;107137;1274;64723;-23
2022/05/13 13:57:24;;;;;;;3.80;1.50;;;;;;100182.58;;;;107168;1273;64712;-30
2022/05/13 14:00:20;;;;;;;4.10;1.70;;;;;;100182.69;;;;107216;1274;64798;-23